• Join FlightAware (Why Join?)
  • Login
  • US Flag 
Rudolph Flight #1: Arrived! 
03:58PM EST


 

Airport Tracker/Info


-or-


 

Live Flight TrackerFlight Track Log ✈ SWR461 ✈ 02-Nov-2013 ✈ EGLC / LCY - LSZH / ZRH

Flight Track Log - Related Links

Times and Time Zones

All times are in EDT time to prevent confusion due to time zone crossing. See the SWR461 flight status page for this flight to view local times or setup timezone preferences in your user account.

Time Position Orientation Groundspeed Altitude Reporting Facility
EDT Latitude Longitude Course Direction KTS MPH feet Rate Location/Type
06:01AM 51.5053 0.0539 272° West 115 132  Level FlightAware ADS-B (EGLC / LCY)
06:02AM 51.5060 0.0329 273° West 121 139 1,000 2,580 Climbing FlightAware ADS-B (EGLC / LCY)
06:02AM 51.5064 0.0176 272° West 118 136 1,800 1,920 Climbing FlightAware ADS-B (EGLC / LCY)
06:02AM 51.5073 0.0001 275° West 130 150 2,200 1,320 Climbing FlightAware ADS-B (EGLC / LCY)
06:02AM 51.5094 -0.0097 289° West 148 170 2,400 1,020 Climbing FlightAware ADS-B (EGLC / LCY)
06:03AM 51.5126 -0.0173 304° West 166 191 2,500 960 Climbing FlightAware ADS-B (EPWR / WRO)
06:03AM 51.5189 -0.0254 321° Northwest 182 209 2,700 1,140 Climbing FlightAware ADS-B
06:03AM 51.5253 -0.0290 341° North 200 230 2,900 1,320 Climbing FlightAware ADS-B
06:03AM 51.5380 -0.0337 347° North 220 253 3,200 1,200 Climbing FlightAware ADS-B (EGLC / LCY)
06:03AM 51.5474 -0.0330 North 243 280 3,300 660 Climbing FlightAware ADS-B
06:03AM 51.5578 -0.0274 19° North 262 302 3,400 420 Climbing FlightAware ADS-B
06:04AM 51.5629 -0.0220 33° Northeast 277 319 3,400  Level FlightAware ADS-B (EGLC / LCY)
06:04AM 51.5670 -0.0167 39° Northeast 288 331 3,400  Level FlightAware ADS-B
06:04AM 51.5707 -0.0090 52° Northeast 290 334 3,400  Level FlightAware ADS-B (EGLC / LCY)
06:04AM 51.5757 0.0038 58° Northeast 293 337 3,400  Level FlightAware ADS-B
06:04AM 51.5801 0.0242 71° East 290 334 3,400  Level FlightAware ADS-B
06:04AM 51.5776 0.0098 254° West 288 331 3,400  Level FlightAware ADS-B (EPWR / WRO)
06:04AM 51.5818 0.0497 80° East 285 328 3,400 -540 Level FlightAware ADS-B (EGLC / LCY)
06:04AM 51.5811 0.0665 94° East 283 326 3,300  Descending FlightAware ADS-B
06:05AM 51.5732 0.1061 108° East 278 320 3,400 120 Climbing FlightAware ADS-B
06:05AM 51.5649 0.1408 111° Southeast 277 319 3,400 600 Level FlightAware ADS-B (EGLC / LCY)
06:05AM 51.5557 0.1792 111° Southeast 280 322 3,800 1,680 Climbing FlightAware ADS-B (EGLC / LCY)
06:06AM 51.5449 0.2246 111° Southeast 288 331 4,600 1,920 Climbing FlightAware ADS-B
06:06AM 51.5385 0.2504 112° Southeast 288 331 5,100 1,560 Climbing FlightAware ADS-B (EGLC / LCY)
06:06AM 51.5252 0.3036 112° Southeast 285 328 5,700 1,800 Climbing FlightAware ADS-B
06:07AM 51.5155 0.3407 113° Southeast 284 327 6,400 2,580 Climbing FlightAware ADS-B
06:07AM 51.5066 0.3755 112° Southeast 282 325 7,300 3,120 Climbing FlightAware ADS-B
06:07AM 51.5052 0.3813 112° Southeast 282 325 7,400 2,100 Climbing FlightAware ADS-B
06:07AM 51.4980 0.4088 113° Southeast 290 334 7,900 1,980 Climbing FlightAware ADS-B
06:07AM 51.4975 0.4110 111° Southeast 291 335 8,000 2,220 Climbing FlightAware ADS-B
06:07AM 51.4903 0.4415 111° Southeast 296 341 8,500 2,460 Climbing FlightAware ADS-B
06:08AM 51.4881 0.4495 114° Southeast 300 345 8,700 1,980 Climbing FlightAware ADS-B (EGLC / LCY)
06:08AM 51.4825 0.4723 111° Southeast 302 348 9,000 2,220 Climbing FlightAware ADS-B
06:08AM 51.4738 0.5056 113° Southeast 305 351 9,700 2,400 Climbing FlightAware ADS-B
06:08AM 51.4699 0.5178 117° Southeast 302 348 9,900 2,400 Climbing FlightAware ADS-B
06:08AM 51.4635 0.5347 121° Southeast 300 345 10,300 3,000 Climbing FlightAware ADS-B
06:08AM 51.4628 0.5365 124° Southeast 300 345 10,400 1,260 Climbing FlightAware ADS-B (EGLC / LCY)
06:09AM 51.4365 0.5945 126° Southeast 325 374 11,000 1,080 Climbing FlightAware ADS-B (EGLC / LCY)
06:09AM 51.4347 0.5985 127° Southeast 327 376 11,000 1,440 Level FlightAware ADS-B
06:09AM 51.4054 0.6609 127° Southeast 343 395 11,800 1,500 Climbing FlightAware ADS-B
06:09AM 51.4025 0.6691 120° Southeast 339 390 11,900 1,560 Climbing FlightAware ADS-B (EGMD / LYX)
06:10AM 51.3770 0.7250 126° Southeast 350 403 12,600 1,620 Climbing FlightAware ADS-B
06:10AM 51.3638 0.7524 128° Southeast 348 400 13,000 1,680 Climbing FlightAware ADS-B (EGMD / LYX)
06:10AM 51.3469 0.7914 125° Southeast 361 415 13,500 1,560 Climbing FlightAware ADS-B
06:10AM 51.3432 0.8034 116° Southeast 367 422 13,600 1,500 Climbing FlightAware ADS-B
06:11AM 51.3396 0.8214 108° East 371 427 13,800 2,160 Climbing FlightAware ADS-B (EGMD / LYX)
06:11AM 51.3380 0.8349 101° East 374 430 14,000 1,680 Climbing FlightAware ADS-B
06:11AM 51.3306 0.9092 99° East 376 433 14,700 1,500 Climbing FlightAware ADS-B (EGLC / LCY)
06:11AM 51.3297 0.9174 100° East 379 436 14,800 1,800 Climbing FlightAware ADS-B
06:11AM 51.3280 0.9370 98° East 380 437 15,000 1,560 Climbing FlightAware ADS-B (EGMD / LYX)
06:12AM 51.3219 1.0043 98° East 385 443 15,600 1,560 Climbing FlightAware ADS-B
06:12AM 51.3203 1.0210 99° East 387 445 15,800 1,500 Climbing FlightAware ADS-B (EGMD / LYX)
06:12AM 51.3140 1.0925 98° East 392 451 16,400 1,380 Climbing FlightAware ADS-B
06:12AM 51.3129 1.1067 97° East 394 453 16,500 1,380 Climbing FlightAware ADS-B (EGMD / LYX)
06:13AM 51.3053 1.1912 98° East 400 460 17,200 1,380 Climbing FlightAware ADS-B
06:13AM 51.3049 1.1941 101° East 399 459 17,200 1,080 Level FlightAware ADS-B (EGMD / LYX)
06:13AM 51.3011 1.2231 102° East 401 461 17,400 1,380 Climbing FlightAware ADS-B
06:13AM 51.2934 1.2808 102° East 402 463 17,900 1,560 Climbing FlightAware ADS-B (EGMD / LYX)
06:14AM 51.2860 1.3330 103° East 405 466 18,400 1,440 Climbing FlightAware ADS-B
06:14AM 51.2726 1.4266 103° East 405 466 19,100 1,260 Climbing FlightAware ADS-B (EGMD / LYX)
06:14AM 51.2704 1.4411 104° East 401 461 19,200 1,980 Climbing FlightAware ADS-B
06:14AM 51.2688 1.4529 102° East 410 472 19,400 1,200 Climbing FlightAware ADS-B
06:15AM 51.2559 1.5446 103° East 411 473 19,900 1,080 Climbing FlightAware ADS-B (EGMD / LYX)
06:15AM 51.2478 1.6011 103° East 401 461 20,300 1,140 Climbing FlightAware ADS-B
06:15AM 51.2409 1.6520 102° East 418 481 20,600 1,080 Climbing FlightAware ADS-B
06:16AM 51.2339 1.7004 103° East 417 480 20,900 900 Climbing FlightAware ADS-B
06:16AM 51.2272 1.7487 102° East 421 484 21,100 1,020 Climbing FlightAware ADS-B (EGMD / LYX)
06:16AM 51.2149 1.8372 103° East 425 489 21,700 1,140 Climbing FlightAware ADS-B
06:16AM 51.2119 1.8557 105° East 430 495 21,800 780 Climbing FlightAware ADS-B
06:17AM 51.1950 1.9249 111° Southeast 420 483 22,100 960 Climbing FlightAware ADS-B
06:17AM 51.1654 2.0089 119° Southeast 420 483 22,700 1,020 Climbing FlightAware ADS-B
06:18AM 51.1384 2.0843 120° Southeast 423 487 23,200 840 Climbing FlightAware ADS-B
06:18AM 51.1051 2.1764 120° Southeast 428 493 23,600 720 Climbing FlightAware ADS-B (EGMD / LYX)
06:19AM 51.0746 2.2612 120° Southeast 432 497 24,000 540 Climbing FlightAware ADS-B (EGMD / LYX)
06:19AM 51.0626 2.2942 120° Southeast 430 495 24,000 720 Level FlightAware ADS-B (EGMD / LYX)
06:19AM 51.0583 2.3052 122° Southeast 432 497 24,200 840 Climbing FlightAware ADS-B
06:20AM 51.0201 2.4125 122° Southeast 402 463 24,600 840 Climbing FlightAware UK
06:20AM 51.0112 2.4359 122° Southeast 424 488 24,900 1,440 Climbing FlightAware ADS-B
06:21AM 50.9709 2.5488 119° Southeast 430 495 25,800 960 Climbing FlightAware ADS-B
06:22AM 50.9146 2.7044 120° Southeast 431 496 26,500 720 Climbing FlightAware ADS-B
06:22AM 50.8640 2.8390 120° Southeast 436 502 27,100 660 Climbing FlightAware
06:23AM 50.8522 2.8741 120° Southeast 398 458 27,200 720 Climbing FlightAware UK
06:23AM 50.8153 2.9736 120° Southeast 396 456 27,700 960 Climbing FlightAware UK
06:24AM 50.7907 3.0404 120° Southeast 437 503 28,100 720 Climbing FlightAware ADS-B
06:24AM 50.7664 3.1062 120° Southeast 394 453 28,300 600 Climbing FlightAware UK
06:24AM 50.7460 3.1590 120° Southeast 438 504 28,600 780 Climbing FlightAware
06:25AM 50.7357 3.1896 120° Southeast 394 453 28,700 420 Climbing FlightAware UK
06:25AM 50.7047 3.2721 120° Southeast 396 456 28,900 540 Climbing FlightAware UK
06:25AM 50.7040 3.2720 120° Southeast 439 505 29,000 -13,440 Climbing FlightAware
06:25AM 50.6838 3.3270 120° Southeast 438 504 24,200 -180 Descending FlightAware ADS-B (EGMD / LYX)
06:26AM 50.6613 3.3876 120° Southeast 392 451 28,900 3,900 Climbing FlightAware UK
06:27AM 50.6090 3.5280 120° Southeast 438 504 29,000  Climbing FlightAware
06:27AM 50.6057 3.5360 120° Southeast 394 453 28,900  Descending FlightAware UK
06:27AM 50.5720 3.6240 121° Southeast 438 504 29,000 60 Climbing FlightAware
06:28AM 50.5390 3.7110 121° Southeast 439 505 29,000 -120 Level FlightAware
06:28AM 50.5122 3.7826 121° Southeast 392 451 28,900  Descending FlightAware UK
06:28AM 50.4960 3.8240 121° Southeast 441 507 29,000  Climbing FlightAware
06:29AM 50.4806 3.8644 121° Southeast 394 453 28,900  Descending FlightAware UK
06:29AM 50.4680 3.8980 121° Southeast 443 510 29,000 60 Climbing FlightAware
06:30AM 50.4250 4.0110 121° Southeast 442 509 29,000 -120 Level FlightAware
06:30AM 50.4048 4.0627 121° Southeast 1 1 28,900  Descending FlightAware UK
06:30AM 50.3820 4.1230 121° Southeast 440 506 29,000  Climbing FlightAware
06:30AM 50.3724 4.1427 121° Southeast 1 1 28,900  Descending FlightAware UK
06:31AM 50.3390 4.2310 121° Southeast 438 504 29,000  Climbing FlightAware
06:31AM 50.3234 4.2775 121° Southeast 1 1 28,900  Descending FlightAware UK
06:32AM 50.2980 4.3370 121° Southeast 438 504 29,000  Climbing FlightAware
06:32AM 50.2904 4.3559 121° Southeast 1 1 28,900 -180 Descending FlightAware UK
06:32AM 50.2589 4.4372 121° Southeast 1 1 28,900 180 Level FlightAware UK
06:32AM 50.2570 4.4420 121° Southeast 437 503 29,000 180 Climbing FlightAware
06:33AM 50.2260 4.5200 121° Southeast 437 503 29,000 -180 Level FlightAware
06:33AM 50.2137 4.5478 121° Southeast 1 1 28,900 -180 Descending FlightAware UK
06:33AM 50.1826 4.6296 121° Southeast 1 1 28,900 120 Level FlightAware UK
06:34AM 50.1750 4.6520 121° Southeast 437 503 29,000 120 Climbing FlightAware
06:34AM 50.1420 4.7350 121° Southeast 438 504 29,000 -180 Level FlightAware
06:34AM 50.1325 4.7599 121° Southeast 1 1 28,900 -180 Descending FlightAware UK
06:35AM 50.1009 4.8411 121° Southeast 1 1 28,900 180 Level FlightAware UK
06:35AM 50.1020 4.8370 121° Southeast 438 504 29,000  Climbing FlightAware
06:35AM 50.0620 4.9367 121° Southeast 1 1 28,900  Descending FlightAware UK
06:35AM 50.0540 4.9580 121° Southeast 437 503 29,000 60 Climbing FlightAware
06:36AM 50.0070 5.0680 124° Southeast 433 498 29,000  Level FlightAware
06:37AM 49.9610 5.1520 130° Southeast 430 495 29,000  Level FlightAware
06:37AM 49.8980 5.2530 134° Southeast 430 495 29,000  Level FlightAware
06:38AM 49.8570 5.3200 133° Southeast 431 496 29,000  Level FlightAware
06:39AM 49.7920 5.4280 133° Southeast 430 495 29,000  Level FlightAware
06:39AM 49.7400 5.5130 133° Southeast 431 496 29,000  Level FlightAware
06:40AM 49.6820 5.6070 134° Southeast 430 495 29,000  Level FlightAware
06:41AM 49.6320 5.6890 133° Southeast 431 496 29,000  Level FlightAware
06:41AM 49.5660 5.7960 134° Southeast 431 496 29,000  Level FlightAware
06:42AM 49.5190 5.8720 134° Southeast 431 496 29,000  Level FlightAware
06:43AM 49.4480 5.9540 143° Southeast 417 480 29,000  Level FlightAware
06:43AM 49.3810 6.0140 150° Southeast 416 479 29,000  Level FlightAware
06:44AM 49.3110 6.0750 150° Southeast 414 476 29,000  Level FlightAware
06:45AM 49.2380 6.1380 151° Southeast 414 476 29,000  Level FlightAware
06:45AM 49.1850 6.1860 149° Southeast 413 475 29,000  Level FlightAware
06:46AM 49.1200 6.2430 150° Southeast 410 472 29,000  Level FlightAware
06:47AM 49.0520 6.3020 150° Southeast 412 474 29,000  Level FlightAware
06:47AM 49.0020 6.3450 151° Southeast 413 475 29,000  Level FlightAware
06:48AM 48.9370 6.4030 150° Southeast 413 475 29,000  Level FlightAware
06:49AM 48.8810 6.4500 151° Southeast 412 474 29,000  Level FlightAware
06:49AM 48.8220 6.5000 151° Southeast 415 478 29,000  Level FlightAware
06:50AM 48.7450 6.5670 150° Southeast 424 488 29,000  Level FlightAware
06:50AM 48.6800 6.6230 150° Southeast 426 490 29,000  Level FlightAware
06:51AM 48.6070 6.6860 150° Southeast 422 486 29,000 -360 Level FlightAware
06:52AM 48.5220 6.7570 151° Southeast 425 489 28,500 -840 Descending FlightAware
06:53AM 48.4640 6.8080 150° Southeast 419 482 27,900 -1,020 Descending FlightAware
06:53AM 48.3900 6.8710 151° Southeast 411 473 27,200 -1,020 Descending FlightAware
06:54AM 48.3330 6.9180 151° Southeast 410 472 26,600 -1,080 Descending FlightAware
06:55AM 48.2710 6.9700 151° Southeast 416 479 25,900 -1,140 Descending FlightAware
06:55AM 48.2090 7.0220 151° Southeast 419 482 25,200 -1,200 Descending FlightAware
06:56AM 48.1070 7.1080 151° Southeast 419 482 24,000 -1,200 Descending FlightAware
06:57AM 48.0290 7.1730 151° Southeast 422 486 23,100 -1,200 Descending FlightAware
06:58AM 47.9590 7.2300 151° Southeast 412 474 22,300 -1,260 Descending FlightAware
06:58AM 47.8910 7.2860 151° Southeast 410 472 21,400 -1,320 Descending FlightAware
06:59AM 47.8330 7.3340 151° Southeast 408 470 20,700 -1,200 Descending FlightAware
07:00AM 47.7660 7.3900 151° Southeast 402 463 19,900 -1,320 Descending FlightAware
07:00AM 47.7230 7.4250 151° Southeast 396 456 19,200 -1,500 Descending FlightAware
07:01AM 47.6590 7.4780 151° Southeast 393 452 18,200 -1,500 Descending FlightAware
07:01AM 47.6180 7.5580 127° Southeast 412 474 17,300 -1,620 Descending FlightAware
07:02AM 47.5980 7.6450 109° East 398 458 16,400 -1,860 Descending FlightAware
07:02AM 47.5790 7.7260 109° East 381 438 15,400 -1,800 Descending FlightAware
07:03AM 47.5550 7.8330 108° East 345 397 14,100 -1,980 Descending FlightAware
07:04AM 47.5310 7.9400 108° East 314 361 12,300 -2,220 Descending FlightAware
07:05AM 47.5150 8.0120 108° East 317 365 11,000 -1,740 Descending FlightAware
07:05AM 47.5330 8.1030 74° East 285 328 9,900 -1,200 Descending FlightAware
07:06AM 47.5890 8.1350 21° North 259 298 9,100 -1,020 Descending FlightAware
07:07AM 47.6200 8.1530 21° North 266 306 8,600 -1,200 Descending FlightAware
07:07AM 47.6390 8.2000 59° Northeast 287 330 8,000 -1,440 Descending FlightAware
07:07AM 47.6420 8.2210 78° East 285 328 7,700 -1,980 Descending FlightAware
07:08AM 47.6180 8.3210 110° East 252 290 5,800 -1,860 Descending FlightAware
07:09AM 47.5960 8.3800 119° Southeast 219 252 4,600 -1,500 Descending FlightAware
07:10AM 47.5730 8.4120 137° Southeast 210 242 3,900 -1,260 Descending FlightAware
07:10AM 47.5440 8.4520 137° Southeast 198 228 3,100 -1,140 Descending FlightAware
07:11AM 47.5310 8.4680 140° Southeast 174 200 2,800 -840 Descending FlightAware
07:11AM 47.5050 8.5050 136° Southeast 143 165 2,100 -840 Descending FlightAware
07:12AM 47.4860 8.5310 137° Southeast 140 161 1,600 -540 Descending FlightAware
07:13AM 47.4690 8.5550 136° Southeast 137 158 1,400 -300 Descending FlightAware
07:13AM 47.4640 8.5600 146° Southeast 129 148 -1,980 Descending FlightAware
07:14AM 47.4610 8.5600 180° South 129 148  Level FlightAware
07:15AM 47.4580 8.5590 193° South 129 148  Level FlightAware
07:15AM 47.4550 8.5580 193° South 129 148  Level FlightAware
07:16AM 47.4550 8.5560 270° West 129 148  Level FlightAware
07:17AM 47.4690 8.5500 344° North 129 148  Level FlightAware
07:20AM 47.4647 8.5492 187° South  Level Estimated